sensor_id;sensor_type;location;lat;lon;timestamp;temperature;humidity
20171;DHT22;10245;51.344;6.620;2023-05-07T00:00:16;15.00;89.70
20171;DHT22;10245;51.344;6.620;2023-05-07T00:02:40;15.00;89.70
20171;DHT22;10245;51.344;6.620;2023-05-07T00:05:07;15.00;89.60
20171;DHT22;10245;51.344;6.620;2023-05-07T00:07:31;15.00;89.50
20171;DHT22;10245;51.344;6.620;2023-05-07T00:09:54;15.00;89.60
20171;DHT22;10245;51.344;6.620;2023-05-07T00:12:17;15.00;89.80
20171;DHT22;10245;51.344;6.620;2023-05-07T00:14:41;14.90;89.80
20171;DHT22;10245;51.344;6.620;2023-05-07T00:17:04;15.00;89.90
20171;DHT22;10245;51.344;6.620;2023-05-07T00:19:28;15.00;89.70
20171;DHT22;10245;51.344;6.620;2023-05-07T00:21:52;14.90;89.60
20171;DHT22;10245;51.344;6.620;2023-05-07T00:24:17;14.90;89.90
20171;DHT22;10245;51.344;6.620;2023-05-07T00:26:41;14.80;90.00
20171;DHT22;10245;51.344;6.620;2023-05-07T00:29:04;14.90;90.00
20171;DHT22;10245;51.344;6.620;2023-05-07T00:31:27;14.80;90.00
20171;DHT22;10245;51.344;6.620;2023-05-07T00:33:50;14.80;90.00
20171;DHT22;10245;51.344;6.620;2023-05-07T00:36:14;14.80;89.90
20171;DHT22;10245;51.344;6.620;2023-05-07T00:38:38;14.80;89.80
20171;DHT22;10245;51.344;6.620;2023-05-07T00:41:02;14.80;89.70
20171;DHT22;10245;51.344;6.620;2023-05-07T00:43:25;14.80;89.60
20171;DHT22;10245;51.344;6.620;2023-05-07T00:45:49;14.80;89.60
20171;DHT22;10245;51.344;6.620;2023-05-07T00:48:12;14.80;89.50
20171;DHT22;10245;51.344;6.620;2023-05-07T00:50:36;14.80;89.60
20171;DHT22;10245;51.344;6.620;2023-05-07T00:53:00;14.70;89.70
20171;DHT22;10245;51.344;6.620;2023-05-07T00:55:25;14.70;90.10
20171;DHT22;10245;51.344;6.620;2023-05-07T00:57:49;14.70;90.10
20171;DHT22;10245;51.344;6.620;2023-05-07T01:00:13;14.80;90.00
20171;DHT22;10245;51.344;6.620;2023-05-07T01:02:38;14.80;90.00
20171;DHT22;10245;51.344;6.620;2023-05-07T01:05:02;14.80;90.10
20171;DHT22;10245;51.344;6.620;2023-05-07T01:07:28;14.70;90.10
20171;DHT22;10245;51.344;6.620;2023-05-07T01:09:53;14.60;90.20
20171;DHT22;10245;51.344;6.620;2023-05-07T01:12:17;14.60;90.20
20171;DHT22;10245;51.344;6.620;2023-05-07T01:14:41;14.50;90.30
20171;DHT22;10245;51.344;6.620;2023-05-07T01:17:04;14.50;90.40
20171;DHT22;10245;51.344;6.620;2023-05-07T01:19:29;14.50;90.40
20171;DHT22;10245;51.344;6.620;2023-05-07T01:22:01;14.50;90.50
20171;DHT22;10245;51.344;6.620;2023-05-07T01:24:35;14.50;90.30
20171;DHT22;10245;51.344;6.620;2023-05-07T01:27:00;14.50;90.40
20171;DHT22;10245;51.344;6.620;2023-05-07T01:29:26;14.50;90.30
20171;DHT22;10245;51.344;6.620;2023-05-07T01:31:51;14.50;90.30
20171;DHT22;10245;51.344;6.620;2023-05-07T01:34:17;14.50;90.40
20171;DHT22;10245;51.344;6.620;2023-05-07T01:36:43;14.50;90.40
20171;DHT22;10245;51.344;6.620;2023-05-07T01:39:07;14.50;90.40
20171;DHT22;10245;51.344;6.620;2023-05-07T01:41:34;14.50;90.40
20171;DHT22;10245;51.344;6.620;2023-05-07T01:43:58;14.50;90.40
20171;DHT22;10245;51.344;6.620;2023-05-07T01:46:22;14.50;90.40
20171;DHT22;10245;51.344;6.620;2023-05-07T01:48:46;14.40;90.40
20171;DHT22;10245;51.344;6.620;2023-05-07T01:51:09;14.40;90.40
20171;DHT22;10245;51.344;6.620;2023-05-07T01:53:35;14.30;90.60
20171;DHT22;10245;51.344;6.620;2023-05-07T01:55:59;14.30;90.70
20171;DHT22;10245;51.344;6.620;2023-05-07T01:58:25;14.40;90.70
20171;DHT22;10245;51.344;6.620;2023-05-07T02:00:49;14.30;90.70
20171;DHT22;10245;51.344;6.620;2023-05-07T02:03:13;14.30;90.70
20171;DHT22;10245;51.344;6.620;2023-05-07T02:05:46;14.30;90.70
20171;DHT22;10245;51.344;6.620;2023-05-07T02:08:26;14.20;90.80
20171;DHT22;10245;51.344;6.620;2023-05-07T02:10:50;14.20;90.80
20171;DHT22;10245;51.344;6.620;2023-05-07T02:13:16;14.30;90.90
20171;DHT22;10245;51.344;6.620;2023-05-07T02:15:43;14.30;91.00
20171;DHT22;10245;51.344;6.620;2023-05-07T02:18:11;14.30;91.00
20171;DHT22;10245;51.344;6.620;2023-05-07T02:20:34;14.30;90.90
20171;DHT22;10245;51.344;6.620;2023-05-07T02:22:58;14.20;91.00
20171;DHT22;10245;51.344;6.620;2023-05-07T02:25:24;14.20;91.00
20171;DHT22;10245;51.344;6.620;2023-05-07T02:27:47;14.20;90.90
20171;DHT22;10245;51.344;6.620;2023-05-07T02:30:11;14.20;90.90
20171;DHT22;10245;51.344;6.620;2023-05-07T02:32:37;14.20;90.90
20171;DHT22;10245;51.344;6.620;2023-05-07T02:35:00;14.10;90.90
20171;DHT22;10245;51.344;6.620;2023-05-07T02:37:24;14.10;91.00
20171;DHT22;10245;51.344;6.620;2023-05-07T02:39:47;14.10;91.00
20171;DHT22;10245;51.344;6.620;2023-05-07T02:42:11;14.00;91.00
20171;DHT22;10245;51.344;6.620;2023-05-07T02:44:34;14.00;91.30
20171;DHT22;10245;51.344;6.620;2023-05-07T02:46:57;14.00;91.40
20171;DHT22;10245;51.344;6.620;2023-05-07T02:49:22;14.00;91.40
20171;DHT22;10245;51.344;6.620;2023-05-07T02:51:46;13.90;91.50
20171;DHT22;10245;51.344;6.620;2023-05-07T02:54:15;13.90;91.60
20171;DHT22;10245;51.344;6.620;2023-05-07T02:56:39;13.90;91.50
20171;DHT22;10245;51.344;6.620;2023-05-07T02:59:02;13.80;91.40
20171;DHT22;10245;51.344;6.620;2023-05-07T03:01:31;13.80;91.40
20171;DHT22;10245;51.344;6.620;2023-05-07T03:04:00;13.70;91.30
20171;DHT22;10245;51.344;6.620;2023-05-07T03:06:24;13.70;91.40
20171;DHT22;10245;51.344;6.620;2023-05-07T03:08:48;13.60;91.40
20171;DHT22;10245;51.344;6.620;2023-05-07T03:11:11;13.60;91.50
20171;DHT22;10245;51.344;6.620;2023-05-07T03:13:35;13.60;91.40
20171;DHT22;10245;51.344;6.620;2023-05-07T03:15:58;13.60;91.50
20171;DHT22;10245;51.344;6.620;2023-05-07T03:18:22;13.60;91.40
20171;DHT22;10245;51.344;6.620;2023-05-07T03:20:46;13.60;91.30
20171;DHT22;10245;51.344;6.620;2023-05-07T03:23:13;13.60;91.30
20171;DHT22;10245;51.344;6.620;2023-05-07T03:25:37;13.60;91.40
20171;DHT22;10245;51.344;6.620;2023-05-07T03:28:00;13.60;91.40
20171;DHT22;10245;51.344;6.620;2023-05-07T03:30:32;13.60;91.40
20171;DHT22;10245;51.344;6.620;2023-05-07T03:32:55;13.60;91.60
20171;DHT22;10245;51.344;6.620;2023-05-07T03:35:19;13.60;91.70
20171;DHT22;10245;51.344;6.620;2023-05-07T03:37:42;13.60;91.80
20171;DHT22;10245;51.344;6.620;2023-05-07T03:40:09;13.60;91.80
20171;DHT22;10245;51.344;6.620;2023-05-07T03:42:41;13.60;91.80
20171;DHT22;10245;51.344;6.620;2023-05-07T03:45:08;13.50;91.70
20171;DHT22;10245;51.344;6.620;2023-05-07T03:47:34;13.50;91.70
20171;DHT22;10245;51.344;6.620;2023-05-07T03:49:58;13.60;91.90
20171;DHT22;10245;51.344;6.620;2023-05-07T03:52:21;13.60;92.00
20171;DHT22;10245;51.344;6.620;2023-05-07T03:54:50;13.60;92.10
20171;DHT22;10245;51.344;6.620;2023-05-07T03:57:15;13.60;92.20
20171;DHT22;10245;51.344;6.620;2023-05-07T03:59:38;13.60;92.20
20171;DHT22;10245;51.344;6.620;2023-05-07T04:02:03;13.60;92.20
20171;DHT22;10245;51.344;6.620;2023-05-07T04:04:27;13.50;92.20
20171;DHT22;10245;51.344;6.620;2023-05-07T04:06:55;13.50;92.10
20171;DHT22;10245;51.344;6.620;2023-05-07T04:09:18;13.60;92.10
20171;DHT22;10245;51.344;6.620;2023-05-07T04:11:42;13.60;92.10
20171;DHT22;10245;51.344;6.620;2023-05-07T04:14:07;13.60;91.90
20171;DHT22;10245;51.344;6.620;2023-05-07T04:16:31;13.70;91.80
20171;DHT22;10245;51.344;6.620;2023-05-07T04:18:55;13.60;91.70
20171;DHT22;10245;51.344;6.620;2023-05-07T04:21:19;13.60;91.70
20171;DHT22;10245;51.344;6.620;2023-05-07T04:23:46;13.70;91.80
20171;DHT22;10245;51.344;6.620;2023-05-07T04:26:09;13.70;91.70
20171;DHT22;10245;51.344;6.620;2023-05-07T04:28:36;13.70;91.60
20171;DHT22;10245;51.344;6.620;2023-05-07T04:31:00;13.70;91.70
20171;DHT22;10245;51.344;6.620;2023-05-07T04:33:25;13.70;91.60
20171;DHT22;10245;51.344;6.620;2023-05-07T04:35:51;13.70;91.60
20171;DHT22;10245;51.344;6.620;2023-05-07T04:38:14;13.70;91.70
20171;DHT22;10245;51.344;6.620;2023-05-07T04:40:38;13.70;91.60
20171;DHT22;10245;51.344;6.620;2023-05-07T04:43:05;13.70;91.70
20171;DHT22;10245;51.344;6.620;2023-05-07T04:45:35;13.70;91.70
20171;DHT22;10245;51.344;6.620;2023-05-07T04:47:59;13.80;91.70
20171;DHT22;10245;51.344;6.620;2023-05-07T04:50:25;13.70;91.70
20171;DHT22;10245;51.344;6.620;2023-05-07T04:52:52;13.80;91.60
20171;DHT22;10245;51.344;6.620;2023-05-07T04:55:18;13.80;91.60
20171;DHT22;10245;51.344;6.620;2023-05-07T04:57:41;13.80;91.40
20171;DHT22;10245;51.344;6.620;2023-05-07T05:00:07;13.90;91.30
20171;DHT22;10245;51.344;6.620;2023-05-07T05:02:33;13.90;91.20
20171;DHT22;10245;51.344;6.620;2023-05-07T05:04:58;13.90;91.20
20171;DHT22;10245;51.344;6.620;2023-05-07T05:07:23;14.00;91.40
20171;DHT22;10245;51.344;6.620;2023-05-07T05:09:46;14.00;91.50
20171;DHT22;10245;51.344;6.620;2023-05-07T05:12:10;14.00;91.50
20171;DHT22;10245;51.344;6.620;2023-05-07T05:14:35;14.00;91.50
20171;DHT22;10245;51.344;6.620;2023-05-07T05:16:59;14.00;91.50
20171;DHT22;10245;51.344;6.620;2023-05-07T05:19:22;14.10;91.60
20171;DHT22;10245;51.344;6.620;2023-05-07T05:21:47;14.10;91.50
20171;DHT22;10245;51.344;6.620;2023-05-07T05:24:10;14.10;91.40
20171;DHT22;10245;51.344;6.620;2023-05-07T05:26:34;14.30;91.40
20171;DHT22;10245;51.344;6.620;2023-05-07T05:28:57;14.30;91.20
20171;DHT22;10245;51.344;6.620;2023-05-07T05:31:23;14.30;91.00
20171;DHT22;10245;51.344;6.620;2023-05-07T05:33:46;14.30;90.60
20171;DHT22;10245;51.344;6.620;2023-05-07T05:36:10;14.50;90.60
20171;DHT22;10245;51.344;6.620;2023-05-07T05:38:37;14.50;90.20
20171;DHT22;10245;51.344;6.620;2023-05-07T05:41:01;14.50;90.20
20171;DHT22;10245;51.344;6.620;2023-05-07T05:43:25;14.60;90.00
20171;DHT22;10245;51.344;6.620;2023-05-07T05:45:48;14.80;90.00
20171;DHT22;10245;51.344;6.620;2023-05-07T05:48:11;14.80;89.60
20171;DHT22;10245;51.344;6.620;2023-05-07T05:50:35;14.90;89.30
20171;DHT22;10245;51.344;6.620;2023-05-07T05:52:59;15.00;89.30
20171;DHT22;10245;51.344;6.620;2023-05-07T05:55:25;15.00;89.10
20171;DHT22;10245;51.344;6.620;2023-05-07T05:57:48;15.00;88.60
20171;DHT22;10245;51.344;6.620;2023-05-07T06:00:13;15.00;88.00
20171;DHT22;10245;51.344;6.620;2023-05-07T06:02:40;15.10;87.70
20171;DHT22;10245;51.344;6.620;2023-05-07T06:05:06;15.10;87.60
20171;DHT22;10245;51.344;6.620;2023-05-07T06:07:29;15.10;87.20
20171;DHT22;10245;51.344;6.620;2023-05-07T06:09:53;15.20;87.30
20171;DHT22;10245;51.344;6.620;2023-05-07T06:12:18;15.30;87.60
20171;DHT22;10245;51.344;6.620;2023-05-07T06:14:43;15.40;87.40
20171;DHT22;10245;51.344;6.620;2023-05-07T06:17:07;15.40;86.80
20171;DHT22;10245;51.344;6.620;2023-05-07T06:19:30;15.40;86.40
20171;DHT22;10245;51.344;6.620;2023-05-07T06:21:54;15.50;86.60
20171;DHT22;10245;51.344;6.620;2023-05-07T06:24:20;15.50;86.80
20171;DHT22;10245;51.344;6.620;2023-05-07T06:26:43;15.60;86.40
20171;DHT22;10245;51.344;6.620;2023-05-07T06:29:09;15.60;85.70
20171;DHT22;10245;51.344;6.620;2023-05-07T06:31:34;15.70;85.90
20171;DHT22;10245;51.344;6.620;2023-05-07T06:34:01;15.70;85.40
20171;DHT22;10245;51.344;6.620;2023-05-07T06:36:31;15.70;85.10
20171;DHT22;10245;51.344;6.620;2023-05-07T06:38:59;15.70;85.50
20171;DHT22;10245;51.344;6.620;2023-05-07T06:41:22;15.70;85.30
20171;DHT22;10245;51.344;6.620;2023-05-07T06:43:45;15.70;84.80
20171;DHT22;10245;51.344;6.620;2023-05-07T06:46:39;15.80;84.30
20171;DHT22;10245;51.344;6.620;2023-05-07T06:49:04;15.90;83.60
20171;DHT22;10245;51.344;6.620;2023-05-07T06:51:27;16.00;84.20
20171;DHT22;10245;51.344;6.620;2023-05-07T06:53:55;16.00;84.50
20171;DHT22;10245;51.344;6.620;2023-05-07T06:56:18;16.10;83.90
20171;DHT22;10245;51.344;6.620;2023-05-07T06:58:42;16.10;83.90
20171;DHT22;10245;51.344;6.620;2023-05-07T07:01:06;16.20;83.70
20171;DHT22;10245;51.344;6.620;2023-05-07T07:03:32;16.20;83.00
20171;DHT22;10245;51.344;6.620;2023-05-07T07:05:55;16.30;83.00
20171;DHT22;10245;51.344;6.620;2023-05-07T07:08:19;16.40;82.10
20171;DHT22;10245;51.344;6.620;2023-05-07T07:10:44;16.50;82.60
20171;DHT22;10245;51.344;6.620;2023-05-07T07:13:08;16.50;82.20
20171;DHT22;10245;51.344;6.620;2023-05-07T07:15:31;16.50;81.90
20171;DHT22;10245;51.344;6.620;2023-05-07T07:17:55;16.60;82.40
20171;DHT22;10245;51.344;6.620;2023-05-07T07:20:20;16.70;81.90
20171;DHT22;10245;51.344;6.620;2023-05-07T07:22:43;16.80;81.70
20171;DHT22;10245;51.344;6.620;2023-05-07T07:25:09;16.80;81.90
20171;DHT22;10245;51.344;6.620;2023-05-07T07:27:33;16.90;81.80
20171;DHT22;10245;51.344;6.620;2023-05-07T07:29:56;17.00;81.10
20171;DHT22;10245;51.344;6.620;2023-05-07T07:32:21;17.30;80.50
20171;DHT22;10245;51.344;6.620;2023-05-07T07:34:45;17.30;78.40
20171;DHT22;10245;51.344;6.620;2023-05-07T07:37:10;17.50;78.60
20171;DHT22;10245;51.344;6.620;2023-05-07T07:39:34;17.80;79.00
20171;DHT22;10245;51.344;6.620;2023-05-07T07:42:01;18.00;76.80
20171;DHT22;10245;51.344;6.620;2023-05-07T07:44:25;18.00;76.00
20171;DHT22;10245;51.344;6.620;2023-05-07T07:46:52;18.00;77.00
20171;DHT22;10245;51.344;6.620;2023-05-07T07:49:18;17.90;75.60
20171;DHT22;10245;51.344;6.620;2023-05-07T07:51:42;18.00;76.40
20171;DHT22;10245;51.344;6.620;2023-05-07T07:54:08;18.20;75.50
20171;DHT22;10245;51.344;6.620;2023-05-07T07:56:32;18.40;75.60
20171;DHT22;10245;51.344;6.620;2023-05-07T07:58:58;18.50;75.60
20171;DHT22;10245;51.344;6.620;2023-05-07T08:01:21;18.90;74.60
20171;DHT22;10245;51.344;6.620;2023-05-07T08:03:45;19.00;75.20
20171;DHT22;10245;51.344;6.620;2023-05-07T08:06:09;18.50;73.60
20171;DHT22;10245;51.344;6.620;2023-05-07T08:08:32;18.70;75.80
20171;DHT22;10245;51.344;6.620;2023-05-07T08:10:57;18.80;74.00
20171;DHT22;10245;51.344;6.620;2023-05-07T08:13:25;18.80;74.70
20171;DHT22;10245;51.344;6.620;2023-05-07T08:15:49;19.00;75.90
20171;DHT22;10245;51.344;6.620;2023-05-07T08:18:12;19.00;76.40
20171;DHT22;10245;51.344;6.620;2023-05-07T08:20:38;18.80;76.10
20171;DHT22;10245;51.344;6.620;2023-05-07T08:23:04;18.90;75.10
20171;DHT22;10245;51.344;6.620;2023-05-07T08:25:28;19.10;74.00
20171;DHT22;10245;51.344;6.620;2023-05-07T08:27:55;19.40;72.80
20171;DHT22;10245;51.344;6.620;2023-05-07T08:30:18;19.50;72.40
20171;DHT22;10245;51.344;6.620;2023-05-07T08:32:42;19.60;74.10
20171;DHT22;10245;51.344;6.620;2023-05-07T08:35:06;19.50;73.00
20171;DHT22;10245;51.344;6.620;2023-05-07T08:37:30;19.80;73.30
20171;DHT22;10245;51.344;6.620;2023-05-07T08:39:54;19.90;72.10
20171;DHT22;10245;51.344;6.620;2023-05-07T08:42:23;20.10;72.00
20171;DHT22;10245;51.344;6.620;2023-05-07T08:44:51;20.00;74.20
20171;DHT22;10245;51.344;6.620;2023-05-07T08:47:18;20.00;71.60
20171;DHT22;10245;51.344;6.620;2023-05-07T08:49:44;20.40;68.30
20171;DHT22;10245;51.344;6.620;2023-05-07T08:52:09;20.30;70.20
20171;DHT22;10245;51.344;6.620;2023-05-07T08:54:32;20.50;69.90
20171;DHT22;10245;51.344;6.620;2023-05-07T08:56:57;20.50;70.70
20171;DHT22;10245;51.344;6.620;2023-05-07T08:59:21;21.10;69.30
20171;DHT22;10245;51.344;6.620;2023-05-07T09:01:46;21.70;68.50
20171;DHT22;10245;51.344;6.620;2023-05-07T09:04:10;21.70;64.40
20171;DHT22;10245;51.344;6.620;2023-05-07T09:06:35;21.20;66.90
20171;DHT22;10245;51.344;6.620;2023-05-07T09:09:00;21.20;67.90
20171;DHT22;10245;51.344;6.620;2023-05-07T09:11:28;21.30;64.90
20171;DHT22;10245;51.344;6.620;2023-05-07T09:13:54;20.70;65.00
20171;DHT22;10245;51.344;6.620;2023-05-07T09:16:21;20.50;66.50
20171;DHT22;10245;51.344;6.620;2023-05-07T09:18:46;21.30;66.60
20171;DHT22;10245;51.344;6.620;2023-05-07T09:21:10;22.00;65.10
20171;DHT22;10245;51.344;6.620;2023-05-07T09:23:34;21.90;62.80
20171;DHT22;10245;51.344;6.620;2023-05-07T09:26:00;21.90;65.30
20171;DHT22;10245;51.344;6.620;2023-05-07T09:28:27;22.00;65.10
20171;DHT22;10245;51.344;6.620;2023-05-07T09:30:50;21.80;63.50
20171;DHT22;10245;51.344;6.620;2023-05-07T09:33:14;21.60;64.70
20171;DHT22;10245;51.344;6.620;2023-05-07T09:35:44;22.30;62.00
20171;DHT22;10245;51.344;6.620;2023-05-07T09:38:12;22.00;64.00
20171;DHT22;10245;51.344;6.620;2023-05-07T09:40:38;21.70;66.90
20171;DHT22;10245;51.344;6.620;2023-05-07T09:43:10;22.00;67.10
20171;DHT22;10245;51.344;6.620;2023-05-07T09:45:39;22.10;62.00
20171;DHT22;10245;51.344;6.620;2023-05-07T09:48:05;21.00;66.30
20171;DHT22;10245;51.344;6.620;2023-05-07T09:50:36;21.40;64.80
20171;DHT22;10245;51.344;6.620;2023-05-07T09:53:03;21.00;64.70
20171;DHT22;10245;51.344;6.620;2023-05-07T09:55:28;21.90;62.70
20171;DHT22;10245;51.344;6.620;2023-05-07T09:57:53;21.90;62.20
20171;DHT22;10245;51.344;6.620;2023-05-07T10:00:18;21.90;62.80
20171;DHT22;10245;51.344;6.620;2023-05-07T10:02:43;21.70;59.60
20171;DHT22;10245;51.344;6.620;2023-05-07T10:05:12;21.70;60.10
20171;DHT22;10245;51.344;6.620;2023-05-07T10:07:37;21.70;61.30
20171;DHT22;10245;51.344;6.620;2023-05-07T10:10:06;21.50;63.70
20171;DHT22;10245;51.344;6.620;2023-05-07T10:12:35;22.00;60.00
20171;DHT22;10245;51.344;6.620;2023-05-07T10:15:07;21.90;61.30
20171;DHT22;10245;51.344;6.620;2023-05-07T10:17:35;21.90;60.70
20171;DHT22;10245;51.344;6.620;2023-05-07T10:19:59;22.30;57.50
20171;DHT22;10245;51.344;6.620;2023-05-07T10:22:26;22.00;59.10
20171;DHT22;10245;51.344;6.620;2023-05-07T10:24:52;22.70;55.30
20171;DHT22;10245;51.344;6.620;2023-05-07T10:27:19;22.70;57.30
20171;DHT22;10245;51.344;6.620;2023-05-07T10:29:55;22.40;58.70
20171;DHT22;10245;51.344;6.620;2023-05-07T10:32:35;22.60;57.20
20171;DHT22;10245;51.344;6.620;2023-05-07T10:35:09;22.80;57.50
20171;DHT22;10245;51.344;6.620;2023-05-07T10:37:34;22.50;59.30
20171;DHT22;10245;51.344;6.620;2023-05-07T10:39:57;22.70;56.80
20171;DHT22;10245;51.344;6.620;2023-05-07T10:42:25;22.60;56.10
20171;DHT22;10245;51.344;6.620;2023-05-07T10:44:50;22.60;59.00
20171;DHT22;10245;51.344;6.620;2023-05-07T10:47:21;22.80;57.70
20171;DHT22;10245;51.344;6.620;2023-05-07T10:50:20;22.90;56.20
20171;DHT22;10245;51.344;6.620;2023-05-07T10:52:44;22.30;58.10
20171;DHT22;10245;51.344;6.620;2023-05-07T10:55:20;22.60;58.50
20171;DHT22;10245;51.344;6.620;2023-05-07T10:58:27;23.00;55.00
20171;DHT22;10245;51.344;6.620;2023-05-07T11:01:50;22.50;54.10
20171;DHT22;10245;51.344;6.620;2023-05-07T11:04:33;22.50;56.70
20171;DHT22;10245;51.344;6.620;2023-05-07T11:07:38;22.70;54.20
20171;DHT22;10245;51.344;6.620;2023-05-07T11:10:07;22.70;57.40
20171;DHT22;10245;51.344;6.620;2023-05-07T11:12:54;23.00;55.90
20171;DHT22;10245;51.344;6.620;2023-05-07T11:15:51;23.00;54.60
20171;DHT22;10245;51.344;6.620;2023-05-07T11:18:46;23.10;55.70
20171;DHT22;10245;51.344;6.620;2023-05-07T11:21:11;22.70;55.70
20171;DHT22;10245;51.344;6.620;2023-05-07T11:24:09;22.50;55.60
20171;DHT22;10245;51.344;6.620;2023-05-07T11:26:45;22.30;55.10
20171;DHT22;10245;51.344;6.620;2023-05-07T11:29:11;22.40;57.10
20171;DHT22;10245;51.344;6.620;2023-05-07T11:31:38;22.70;57.70
20171;DHT22;10245;51.344;6.620;2023-05-07T11:34:03;22.80;59.10
20171;DHT22;10245;51.344;6.620;2023-05-07T11:36:31;22.60;54.20
20171;DHT22;10245;51.344;6.620;2023-05-07T11:39:00;22.90;54.90
20171;DHT22;10245;51.344;6.620;2023-05-07T11:41:33;23.10;53.60
20171;DHT22;10245;51.344;6.620;2023-05-07T11:43:59;22.80;55.70
20171;DHT22;10245;51.344;6.620;2023-05-07T11:46:22;22.30;56.70
20171;DHT22;10245;51.344;6.620;2023-05-07T11:48:47;22.70;57.70
20171;DHT22;10245;51.344;6.620;2023-05-07T11:51:11;22.10;54.90
20171;DHT22;10245;51.344;6.620;2023-05-07T11:53:36;22.00;57.20
20171;DHT22;10245;51.344;6.620;2023-05-07T11:56:01;22.00;55.30
20171;DHT22;10245;51.344;6.620;2023-05-07T11:58:29;22.30;55.90
20171;DHT22;10245;51.344;6.620;2023-05-07T12:00:53;22.30;58.00
20171;DHT22;10245;51.344;6.620;2023-05-07T12:03:17;22.30;60.60
20171;DHT22;10245;51.344;6.620;2023-05-07T12:05:42;22.70;56.70
20171;DHT22;10245;51.344;6.620;2023-05-07T12:08:05;22.50;54.30
20171;DHT22;10245;51.344;6.620;2023-05-07T12:10:29;22.80;57.90
20171;DHT22;10245;51.344;6.620;2023-05-07T12:12:52;22.40;55.90
20171;DHT22;10245;51.344;6.620;2023-05-07T12:15:16;22.20;61.10
20171;DHT22;10245;51.344;6.620;2023-05-07T12:17:40;22.00;59.10
20171;DHT22;10245;51.344;6.620;2023-05-07T12:20:04;22.00;61.90
20171;DHT22;10245;51.344;6.620;2023-05-07T12:22:30;21.90;57.00
20171;DHT22;10245;51.344;6.620;2023-05-07T12:24:57;21.90;58.10
20171;DHT22;10245;51.344;6.620;2023-05-07T12:27:21;21.80;57.10
20171;DHT22;10245;51.344;6.620;2023-05-07T12:29:46;21.90;56.50
20171;DHT22;10245;51.344;6.620;2023-05-07T12:32:13;21.90;59.80
20171;DHT22;10245;51.344;6.620;2023-05-07T12:34:37;21.50;57.80
20171;DHT22;10245;51.344;6.620;2023-05-07T12:37:06;21.70;58.30
20171;DHT22;10245;51.344;6.620;2023-05-07T12:39:31;21.60;56.70
20171;DHT22;10245;51.344;6.620;2023-05-07T12:41:54;21.60;56.10
20171;DHT22;10245;51.344;6.620;2023-05-07T12:44:18;22.00;58.30
20171;DHT22;10245;51.344;6.620;2023-05-07T12:46:42;21.70;57.60
20171;DHT22;10245;51.344;6.620;2023-05-07T12:49:05;21.60;59.00
20171;DHT22;10245;51.344;6.620;2023-05-07T12:51:29;21.50;59.30
20171;DHT22;10245;51.344;6.620;2023-05-07T12:53:56;21.80;62.00
20171;DHT22;10245;51.344;6.620;2023-05-07T12:56:21;21.50;57.20
20171;DHT22;10245;51.344;6.620;2023-05-07T12:58:45;21.60;58.50
20171;DHT22;10245;51.344;6.620;2023-05-07T13:01:08;22.00;62.30
20171;DHT22;10245;51.344;6.620;2023-05-07T13:03:37;21.90;60.10
20171;DHT22;10245;51.344;6.620;2023-05-07T13:06:03;22.00;61.90
20171;DHT22;10245;51.344;6.620;2023-05-07T13:08:30;22.30;60.70
20171;DHT22;10245;51.344;6.620;2023-05-07T13:10:54;22.20;61.50
20171;DHT22;10245;51.344;6.620;2023-05-07T13:13:19;22.20;59.80
20171;DHT22;10245;51.344;6.620;2023-05-07T13:15:43;21.90;59.90
20171;DHT22;10245;51.344;6.620;2023-05-07T13:18:07;22.00;60.20
20171;DHT22;10245;51.344;6.620;2023-05-07T13:20:32;22.00;61.30
20171;DHT22;10245;51.344;6.620;2023-05-07T13:22:55;22.00;62.20
20171;DHT22;10245;51.344;6.620;2023-05-07T13:25:19;21.90;60.80
20171;DHT22;10245;51.344;6.620;2023-05-07T13:27:42;21.90;63.00
20171;DHT22;10245;51.344;6.620;2023-05-07T13:30:09;21.80;62.70
20171;DHT22;10245;51.344;6.620;2023-05-07T13:32:32;22.00;63.20
20171;DHT22;10245;51.344;6.620;2023-05-07T13:34:56;22.00;62.40
20171;DHT22;10245;51.344;6.620;2023-05-07T13:37:19;22.00;62.10
20171;DHT22;10245;51.344;6.620;2023-05-07T13:39:42;22.10;62.70
20171;DHT22;10245;51.344;6.620;2023-05-07T13:42:06;22.10;62.40
20171;DHT22;10245;51.344;6.620;2023-05-07T13:44:29;21.90;61.80
20171;DHT22;10245;51.344;6.620;2023-05-07T13:46:54;21.90;64.20
20171;DHT22;10245;51.344;6.620;2023-05-07T13:49:17;21.90;62.00
20171;DHT22;10245;51.344;6.620;2023-05-07T13:51:41;21.70;62.70
20171;DHT22;10245;51.344;6.620;2023-05-07T13:54:04;21.70;62.70
20171;DHT22;10245;51.344;6.620;2023-05-07T13:56:27;21.90;63.20
20171;DHT22;10245;51.344;6.620;2023-05-07T13:58:53;21.80;61.80
20171;DHT22;10245;51.344;6.620;2023-05-07T14:01:21;21.70;65.30
20171;DHT22;10245;51.344;6.620;2023-05-07T14:03:45;21.30;65.50
20171;DHT22;10245;51.344;6.620;2023-05-07T14:06:09;21.30;67.20
20171;DHT22;10245;51.344;6.620;2023-05-07T14:08:32;21.20;65.90
20171;DHT22;10245;51.344;6.620;2023-05-07T14:10:56;21.20;65.80
20171;DHT22;10245;51.344;6.620;2023-05-07T14:13:19;21.10;66.40
20171;DHT22;10245;51.344;6.620;2023-05-07T14:15:43;21.20;68.10
20171;DHT22;10245;51.344;6.620;2023-05-07T14:18:08;21.00;67.00
20171;DHT22;10245;51.344;6.620;2023-05-07T14:20:33;21.00;67.60
20171;DHT22;10245;51.344;6.620;2023-05-07T14:22:58;20.80;65.40
20171;DHT22;10245;51.344;6.620;2023-05-07T14:25:21;20.60;65.60
20171;DHT22;10245;51.344;6.620;2023-05-07T14:27:46;20.50;65.70
20171;DHT22;10245;51.344;6.620;2023-05-07T14:30:10;20.50;67.60
20171;DHT22;10245;51.344;6.620;2023-05-07T14:32:34;20.50;69.10
20171;DHT22;10245;51.344;6.620;2023-05-07T14:34:57;20.50;70.20
20171;DHT22;10245;51.344;6.620;2023-05-07T14:37:23;20.40;70.50
20171;DHT22;10245;51.344;6.620;2023-05-07T14:39:46;20.50;71.10
20171;DHT22;10245;51.344;6.620;2023-05-07T14:42:11;20.10;72.10
20171;DHT22;10245;51.344;6.620;2023-05-07T14:44:35;20.10;73.30
20171;DHT22;10245;51.344;6.620;2023-05-07T14:46:58;20.00;73.50
20171;DHT22;10245;51.344;6.620;2023-05-07T14:49:23;20.10;75.30
20171;DHT22;10245;51.344;6.620;2023-05-07T14:51:47;20.00;76.20
20171;DHT22;10245;51.344;6.620;2023-05-07T14:54:11;20.00;77.20
20171;DHT22;10245;51.344;6.620;2023-05-07T14:56:35;19.90;77.40
20171;DHT22;10245;51.344;6.620;2023-05-07T14:58:58;20.00;77.80
20171;DHT22;10245;51.344;6.620;2023-05-07T15:01:22;19.90;77.90
20171;DHT22;10245;51.344;6.620;2023-05-07T15:03:45;19.90;78.00
20171;DHT22;10245;51.344;6.620;2023-05-07T15:06:09;19.80;78.30
20171;DHT22;10245;51.344;6.620;2023-05-07T15:08:32;19.80;78.40
20171;DHT22;10245;51.344;6.620;2023-05-07T15:10:57;19.80;78.60
20171;DHT22;10245;51.344;6.620;2023-05-07T15:13:20;19.70;78.80
20171;DHT22;10245;51.344;6.620;2023-05-07T15:15:44;19.70;78.90
20171;DHT22;10245;51.344;6.620;2023-05-07T15:18:08;19.40;79.40
20171;DHT22;10245;51.344;6.620;2023-05-07T15:20:31;19.40;80.30